Terminal Aerodrome Forecast
Issued by NWS Pocatello, ID

Home | Current Version | Previous Version | Text Only | Print | Product List | Glossary On
Versions: 1 2 3 4 5 6 7 8 9 10 11 12 13 14 15 16 17
788
FTUS45 KPIH 262320
TAFIDA
TAF
KIDA 262320Z 2700/2724 32007KT P6SM -SHRA SCT015 BKN025
     FM270500 36005KT P6SM SCT025 BKN060
     FM270900 36005KT P6SM VCFG SCT005 SCT015
     FM271700 35006KT P6SM SCT020=

USA.gov is the U.S. government's official web portal to all federal, state and local government web resources and services.